Aérodrome :
LOGIN :

S'inscrire | Disclaimer

   EN    FR    IT 

 










Légende :    VFR   VFR Marginal   IFR   IFR Intensif   IFR Très Intensif
Visi : 
Plafond : 
>= 8 km
>= 3000ft
5 à 8 km
1000 à 3000 ft
1500m à 5 km
500 à 1000 ft
800 à 1500m
200 à 500 ft
< 800m
< 200 ft
Symboles :   Orages  Brouillard  Fortes neiges  Fortes précipitations  Vent > 20 kt
SIGMETs :   Divers  Orages  Givrage  Turbulence  Onde Orograph.  Cendres Volcan.







- Altitude de l'aérodrome : 142 ft
- Code IATA : FLR


LIRQ - Firenze Amerigo Vespucci

DERNIER METAR :
  • 270120Z 25003KT 130V280 CAVOK 23/15 Q1010

METARs EXPIRÉS :
  • 270050Z VRB02KT CAVOK 23/13 Q1010
  • 270020Z VRB02KT CAVOK 23/13 Q1010
  • 262350Z 35003KT CAVOK 24/15 Q1010
  • 262320Z VRB02KT CAVOK 24/14 Q1010
  • 262250Z VRB02KT CAVOK 26/13 Q1010

TAF TAF LIRQ
Valide du 27 à 00h jusqu'au 28 à 00h UTC


262300Z 2700/2724 VRB04KT 9999 SCT030
BECMG 2708/2710 22010KT
BECMG 2718/2720 VRB04KT
Pas de NOTAMs connus pour ce terrain.
2 SIGMETs publiés pour la FIR Milano (LIMM) :
 
Orages noyés dans la masse
LIMM SIGMET 4 VALID 262230/270230 LIMM- LIMM MILANO FIR EMBD TS FCST NW OF LINE N4418 E00632 - N4614 E01337 TOP FL400 MOV NE NC=
Orages noyés dans la masse
LIMM SIGMET 1 VALID 270230/270530 LIMM- LIMM MILANO FIR EMBD TS FCST NW OF LINE N4418 E00632 - N4614 E01337 TOP FL400 MOV NE WKN=



MET'MAP, la Météo Aéronautique d'un coup d'oeil ! - Copyright ORBIFLY Décembre 2007 - Disclaimer

ORBIFLY MET'MAP TEAM :

Programmation & Développement : Alexandra Zaïnal
Conception & Développement : Baudouin d'Aumeries
Co-Programmation & Développement : Marc-Olivier Méhu
Soutien technique & logistique : Manuel Goepfert

Contact : metmap@orbifly.com




SOURCES & CREDITS :

   NOAA